logo
Rechercher aéroport 
image banner adimage banner adimage banner ad
image banner ad

MGNM - Nuevo Monaco

Situé à Huehuetenango, Guatemala

ICAO - , IATA -

Données fournies par Airmate  

Information générale

Coordonnées: N15°59'45" W91°7'54"
Élévation : 648 feet MSL.
 
Voir autres Aéroports à Huehuetenango

Données opérationnelles

Special qualification required
Heure actuelle UTC:
Heure actuelle locale:
Météo à : - ( 0 km )
METAR: KATL 081452Z 20006KT 9SM FEW030 SCT200 BKN250 11/01 A3020 RMK AO2 SLP230 VIRGA NW-N T01060011 51009
TAF: KATL 081352Z 0814/0918 23003KT P6SM FEW150 SCT200 BKN250 FM081600 21007KT P6SM BKN250 FM082300 17005KT P6SM BKN150 FM090500 15006KT P6SM BKN015 PROB30 0906/0912 2SM -SHRA BR OVC007 FM091200 15006KT 2SM -SHRA BR BKN006
Voir NOTAMs / SUP AIP / TFR affectant cet aéroport [VIEW]
Fréquences de communication: [VIEW]

Pistes:

Coordonnées de l'aéroport

Adresse: Huehuetenango Guatemala

Vue satellite de MGNM